Terminal Aerodrome Forecast
Issued by NWS Wilmington, OH

Current Version | Previous Version | Text Only | Print | Product List | Glossary Off
Versions: 1 2 3 4 5 6 7 8 9 10 11 12 13 14 15 16 17 18 19 20 21 22 23 24 25 26

000
FTUS41 KILN 261735
TAFCVG
TAF
KCVG 261735Z 2618/2724 33005KT P6SM VCTS BKN040CB
      TEMPO 2618/2619 VRB15G21KT 2SM TSRA OVC035CB
     FM262300 VRB04KT P6SM SCT040 BKN150
     FM270800 VRB03KT 5SM BR BKN150
     FM271200 VRB03KT P6SM BKN150
     FM271800 26004KT P6SM VCTS SCT040CB BKN150=

USA.gov is the U.S. government's official web portal to all federal, state and local government web resources and services.